Meath Environmental Platform

Observations for Trim Market St

Time AQI Temp °C Hum % Pres Pa CO μg/m³ H₂S μg/m³ NO μg/m³ NO₂ μg/m³ O₃ μg/m³ SO₂ μg/m³ PM1 μg/m³ PM2.5 μg/m³ PM10 μg/m³
Tuesday 18 August 2026
02:25 2 19.2 78 2,147,483,647 0.03 0 1.88 1.68 52.78 0 1.43 2.67 5.22
02:23 2 19.2 78 2,147,483,647 0.03 0 1.88 1.84 52.42 0 0.71 2.66 5.22
02:22 2 19.2 78 2,147,483,647 0.02 0 1.87 1.84 52.42 0 0.71 1.71 4.07
02:21 2 19.3 78 2,147,483,647 0.02 0 1.9 1.73 51.8 0 0 1.71 4.07
02:20 2 19.3 78 2,147,483,647 0.02 0 1.9 1.69 58.83 0 0.71 2.18 5.22
02:19 2 19.3 78 2,147,483,647 0.03 0 1.9 1.73 52.45 0 0.71 2.18 4.65
02:17 2 19.3 78 2,147,483,647 0.03 0 1.91 1.69 52.66 0 0 1.71 4.07
02:16 2 19.3 78 2,147,483,647 0.01 0 1.91 1.65 51.26 0 0.71 1.71 5.23
02:15 2 19.3 78 2,147,483,647 0.02 0 1.9 1.62 57.52 0 0.71 2.18 4.65
02:14 2 19.3 78 2,147,483,647 0.04 0 1.91 1.56 52.4 0 0.71 1.71 4.65
02:12 2 19.3 78 2,147,483,647 0.03 0 1.91 1.66 52.7 0 0.71 1.71 4.07
02:07 2 19.3 78 2,147,483,647 0.02 0 1.91 1.65 52.81 0 0 2.18 4.65
02:01 2 19.4 79 2,147,483,647 0 0 1.93 1.25 50.59 0 0.71 3.12 5.81
02:00 2 19.4 79 2,147,483,647 0.03 0 1.93 1.35 53.45 0 1.43 2.17 5.81
01:58 2 19.4 79 2,147,483,647 0.02 0 1.93 1.35 54.01 0 0.71 2.17 4.66
01:52 2 19.4 79 2,147,483,647 0.02 0 1.93 1.22 51.73 0 0.71 3.11 5.81
01:51 2 19.4 79 2,147,483,647 0.02 0 1.93 1.22 61.93 0 0.71 2.17 4.66
01:50 2 19.4 79 2,147,483,647 0.01 0 1.93 1.29 55.86 0 0.71 2.64 5.23
01:49 2 19.5 79 2,147,483,647 0 0 1.95 1.06 50.87 0 0.71 2.63 6.38
01:48 2 19.5 79 2,147,483,647 0.02 0 1.94 1.05 57.77 0 0.71 2.64 5.81